Time;durP1;ratioP1;P1;durP2;ratioP2;P2;SDS_P1;SDS_P2;PMS_P1;PMS_P2;Temp;Humidity;BMP_temperature;BMP_pressure;BME280_temperature;BME280_humidity;BME280_pressure;Samples;Min_cycle;Max_cycle;Signal;HPM_P1;HPM_P2
2023/02/15 00:01:06;;;;;;;1999.90;999.90;;;4.30;1.00;;;;;;5014403;28;20180;-68
2023/02/15 00:03:32;;;;;;;1999.90;999.90;;;4.40;1.00;;;;;;5013327;28;20166;-68
2023/02/15 00:05:58;;;;;;;1999.90;999.90;;;4.40;1.00;;;;;;5017323;28;20435;-68
2023/02/15 00:08:23;;;;;;;1999.90;999.90;;;4.30;1.00;;;;;;5018533;28;20639;-68
2023/02/15 00:10:49;;;;;;;1999.90;999.90;;;4.40;1.00;;;;;;5013946;28;20223;-67
2023/02/15 00:13:14;;;;;;;1999.90;999.90;;;4.30;1.00;;;;;;5013935;28;20169;-68
2023/02/15 00:15:40;;;;;;;1999.90;999.90;;;4.20;1.00;;;;;;5014021;28;20221;-68
2023/02/15 00:18:06;;;;;;;1999.90;999.90;;;4.20;1.00;;;;;;5015840;28;20527;-67
2023/02/15 00:20:31;;;;;;;1999.90;999.90;;;4.20;1.00;;;;;;5017705;28;20169;-68
2023/02/15 00:22:57;;;;;;;1999.90;999.90;;;4.20;1.00;;;;;;5018524;28;20552;-67
2023/02/15 00:25:22;;;;;;;1999.90;999.90;;;4.20;1.00;;;;;;5018117;28;20220;-67
2023/02/15 00:27:48;;;;;;;1999.90;999.90;;;4.20;1.00;;;;;;5018687;28;20634;-68
2023/02/15 00:30:14;;;;;;;1999.90;999.90;;;4.10;1.00;;;;;;5017560;28;20173;-67
2023/02/15 00:32:39;;;;;;;1999.90;999.90;;;4.10;1.00;;;;;;5016026;28;20350;-68
2023/02/15 00:35:06;;;;;;;1999.90;999.90;;;4.10;1.00;;;;;;5116283;22;20702;-70
2023/02/15 00:37:32;;;;;;;1999.90;999.90;;;4.10;1.00;;;;;;5079681;28;20203;-70
2023/02/15 00:39:57;;;;;;;1999.90;999.90;;;4.00;1.00;;;;;;5079730;28;20470;-70
2023/02/15 00:42:23;;;;;;;1999.90;999.90;;;4.00;1.00;;;;;;5080394;28;20282;-70
2023/02/15 00:44:49;;;;;;;1999.90;999.90;;;3.90;1.00;;;;;;5073930;28;20190;-70
2023/02/15 00:47:14;;;;;;;1999.90;999.90;;;4.00;1.00;;;;;;5059446;28;20164;-70
2023/02/15 00:49:40;;;;;;;1999.90;999.90;;;3.90;1.00;;;;;;5059662;28;20176;-70
2023/02/15 00:52:05;;;;;;;1999.90;999.90;;;3.90;1.00;;;;;;5059581;28;20167;-69
2023/02/15 00:54:31;;;;;;;1999.90;999.90;;;3.90;1.00;;;;;;5059085;28;20708;-69
2023/02/15 00:56:56;;;;;;;1999.90;999.90;;;3.90;1.00;;;;;;5060866;28;20159;-70
2023/02/15 00:59:22;;;;;;;1999.90;999.90;;;3.90;1.00;;;;;;5060574;28;20180;-69
2023/02/15 01:01:47;;;;;;;1999.90;999.90;;;3.80;1.00;;;;;;5059348;28;20191;-70
2023/02/15 01:04:13;;;;;;;1999.90;999.90;;;3.80;1.00;;;;;;5059527;28;20655;-69
2023/02/15 01:06:39;;;;;;;1999.90;999.90;;;3.80;1.00;;;;;;5058681;28;20183;-70
2023/02/15 01:09:04;;;;;;;1999.90;999.90;;;3.70;1.00;;;;;;5059466;28;20183;-70
2023/02/15 01:11:30;;;;;;;1999.90;999.90;;;3.70;1.00;;;;;;5059927;28;20180;-70
2023/02/15 01:13:57;;;;;;;1999.90;999.90;;;3.70;1.00;;;;;;5060001;28;20167;-69
2023/02/15 01:16:26;;;;;;;1999.90;999.90;;;3.60;1.00;;;;;;5060633;28;20183;-70
2023/02/15 01:18:51;;;;;;;1999.90;999.90;;;3.60;1.00;;;;;;5060552;28;20453;-69
2023/02/15 01:21:19;;;;;;;1999.90;999.90;;;3.50;1.00;;;;;;5060241;28;20414;-70
2023/02/15 01:23:45;;;;;;;1999.90;999.90;;;3.50;1.00;;;;;;5059314;28;20194;-72
2023/02/15 01:26:11;;;;;;;1999.90;999.90;;;3.50;1.00;;;;;;5058389;28;20489;-72
2023/02/15 01:28:37;;;;;;;1999.90;999.90;;;3.50;1.00;;;;;;5056385;28;20475;-70
2023/02/15 01:31:15;;;;;;;1999.90;999.90;;;3.50;1.00;;;;;;5059040;28;20243;-70
2023/02/15 01:33:41;;;;;;;1999.90;999.90;;;3.50;1.00;;;;;;5058734;28;20175;-72
2023/02/15 01:36:06;;;;;;;1999.90;999.90;;;3.40;1.00;;;;;;5057902;28;20452;-71
2023/02/15 01:38:33;;;;;;;1999.90;999.90;;;3.40;1.00;;;;;;5058911;28;20402;-69
2023/02/15 01:41:19;;;;;;;1999.90;999.90;;;3.40;1.00;;;;;;5060253;28;20199;-70
2023/02/15 01:43:53;;;;;;;1999.90;999.90;;;3.40;1.00;;;;;;5060065;28;20445;-68
2023/02/15 01:46:22;;;;;;;1999.90;999.90;;;3.30;1.00;;;;;;5062230;28;21181;-72
2023/02/15 01:48:52;;;;;;;1999.90;999.90;;;3.40;1.00;;;;;;5061462;28;20417;-70
2023/02/15 01:51:22;;;;;;;1999.90;999.90;;;3.40;1.00;;;;;;5060783;28;20401;-70
2023/02/15 01:54:03;;;;;;;1999.90;999.90;;;3.40;1.00;;;;;;5062038;28;20406;-70
2023/02/15 01:56:33;;;;;;;1999.90;999.90;;;3.30;1.00;;;;;;5060635;28;20418;-69
2023/02/15 01:59:03;;;;;;;1999.90;999.90;;;3.30;1.00;;;;;;5060207;28;20417;-69
2023/02/15 02:01:29;;;;;;;1999.90;999.90;;;3.20;1.00;;;;;;5060221;28;20457;-70
2023/02/15 02:03:54;;;;;;;1999.90;999.90;;;3.20;1.00;;;;;;5060548;28;20918;-70
2023/02/15 02:06:20;;;;;;;1999.90;999.90;;;3.20;1.00;;;;;;5060499;28;20191;-69
2023/02/15 02:08:47;;;;;;;1999.90;999.90;;;3.10;1.00;;;;;;5060108;28;20254;-72
2023/02/15 02:11:14;;;;;;;1999.90;999.90;;;3.10;1.00;;;;;;5060491;28;20421;-72
2023/02/15 02:13:42;;;;;;;1999.90;999.90;;;3.00;1.00;;;;;;5062055;28;20513;-69
2023/02/15 02:16:51;;;;;;;1999.90;999.90;;;3.00;1.00;;;;;;5061714;28;20435;-69
2023/02/15 02:19:26;;;;;;;1999.90;999.90;;;2.90;1.00;;;;;;5032437;28;20429;-68
2023/02/15 02:22:20;;;;;;;1999.90;999.90;;;2.90;1.00;;;;;;5060402;28;20449;-71
2023/02/15 02:24:58;;;;;;;1999.90;999.90;;;2.90;1.00;;;;;;5060294;28;20428;-69
2023/02/15 02:28:01;;;;;;;1999.90;999.90;;;2.90;1.00;;;;;;5060803;28;20413;-70
2023/02/15 02:30:49;;;;;;;1999.90;999.90;;;2.80;1.00;;;;;;5047272;28;20418;-69
2023/02/15 02:33:18;;;;;;;1999.90;999.90;;;2.70;1.00;;;;;;5060225;28;20202;-69
2023/02/15 02:36:16;;;;;;;1999.90;999.90;;;2.70;2.20;;;;;;5059840;28;20452;-70
2023/02/15 02:39:04;;;;;;;1999.90;999.90;;;2.70;7.20;;;;;;5060722;28;20651;-68
2023/02/15 02:41:29;;;;;;;1999.90;999.90;;;2.60;5.10;;;;;;5060645;28;20445;-69
2023/02/15 02:44:08;;;;;;;1999.90;999.90;;;2.60;18.00;;;;;;5061196;28;20410;-69
2023/02/15 02:46:42;;;;;;;1999.90;999.90;;;2.60;19.10;;;;;;5060075;28;20163;-68
2023/02/15 02:49:07;;;;;;;1999.90;999.90;;;2.60;26.90;;;;;;5060721;28;20402;-69
2023/02/15 02:51:33;;;;;;;1999.90;999.90;;;2.50;27.00;;;;;;5059179;28;20174;-70
2023/02/15 02:54:04;;;;;;;1999.90;999.90;;;2.50;37.20;;;;;;5061515;28;20652;-72
2023/02/15 02:56:44;;;;;;;1999.90;999.90;;;2.60;37.10;;;;;;5059595;28;20222;-70
2023/02/15 02:59:17;;;;;;;1999.90;999.90;;;2.60;35.70;;;;;;5058796;28;20883;-71
2023/02/15 03:01:54;;;;;;;1999.90;999.90;;;2.60;36.70;;;;;;5060944;28;20548;-71
2023/02/15 03:04:35;;;;;;;1999.90;999.90;;;2.50;61.50;;;;;;5062940;28;20920;-72
2023/02/15 03:07:04;;;;;;;1999.90;999.90;;;2.40;41.40;;;;;;5063332;28;20406;-72
2023/02/15 03:09:43;;;;;;;1999.90;999.90;;;2.50;69.10;;;;;;5060996;28;20436;-70
2023/02/15 03:12:13;;;;;;;1999.90;999.90;;;2.40;74.10;;;;;;5061964;28;20513;-71
2023/02/15 03:14:41;;;;;;;1999.90;999.90;;;2.40;82.40;;;;;;5061872;28;20418;-70
2023/02/15 03:17:08;;;;;;;1999.90;999.90;;;2.40;90.90;;;;;;5060856;28;20410;-70
2023/02/15 03:19:36;;;;;;;1999.90;999.90;;;2.30;92.00;;;;;;5061345;28;20410;-70
2023/02/15 03:22:12;;;;;;;1999.90;999.90;;;2.30;97.30;;;;;;5061714;28;20994;-72
2023/02/15 03:24:50;;;;;;;1999.90;999.90;;;2.30;97.60;;;;;;5060228;28;20436;-71
2023/02/15 03:27:20;;;;;;;1999.90;999.90;;;2.30;99.90;;;;;;5060828;28;20167;-70
2023/02/15 03:29:53;;;;;;;1999.90;999.90;;;3.00;99.90;;;;;;5060903;28;20428;-70
2023/02/15 03:32:19;;;;;;;1999.90;999.90;;;2.30;97.80;;;;;;5062349;28;20911;-71
2023/02/15 03:34:45;;;;;;;1999.90;999.90;;;2.30;99.90;;;;;;5060973;28;20442;-68
2023/02/15 03:37:25;;;;;;;1999.90;999.90;;;2.20;96.80;;;;;;5061872;28;20659;-71
2023/02/15 03:42:45;;;;;;;1999.90;999.90;;;4.50;99.90;;;;;;5059641;28;20483;-71
2023/02/15 03:45:15;;;;;;;1999.90;999.90;;;2.10;99.90;;;;;;5041303;28;20195;-70
2023/02/15 03:47:48;;;;;;;1999.90;999.90;;;2.20;99.90;;;;;;5041310;28;20442;-69
2023/02/15 03:53:03;;;;;;;1999.90;999.90;;;2.10;99.90;;;;;;5060401;28;20397;-70
2023/02/15 03:55:29;;;;;;;1999.90;999.90;;;2.20;99.90;;;;;;5063798;28;20576;-72
2023/02/15 04:03:49;;;;;;;1999.90;999.90;;;2.10;99.60;;;;;;5063370;28;20477;-69
2023/02/15 04:06:15;;;;;;;1999.90;999.90;;;2.10;99.90;;;;;;5061597;28;20428;-70
2023/02/15 04:11:25;;;;;;;1999.90;999.90;;;2.00;97.40;;;;;;5061095;28;20698;-70
2023/02/15 04:13:56;;;;;;;1999.90;999.90;;;2.10;99.50;;;;;;5060747;28;20406;-70
2023/02/15 04:16:23;;;;;;;1999.90;999.90;;;2.10;97.70;;;;;;5059939;28;20199;-70
2023/02/15 04:27:04;;;;;;;1999.90;999.90;;;2.00;86.20;;;;;;5063195;28;20405;-69
2023/02/15 04:29:30;;;;;;;1999.90;999.90;;;2.10;93.70;;;;;;5061680;28;20402;-70
2023/02/15 04:31:57;;;;;;;1999.90;999.90;;;2.10;95.70;;;;;;5062094;28;20472;-70
2023/02/15 04:34:23;;;;;;;1999.90;999.90;;;2.10;90.00;;;;;;5062239;28;20868;-72
2023/02/15 04:36:50;;;;;;;1999.90;999.90;;;2.10;83.00;;;;;;5063868;28;20413;-71
2023/02/15 04:39:17;;;;;;;1999.90;999.90;;;2.10;78.00;;;;;;5063360;28;20838;-70
2023/02/15 04:41:42;;;;;;;1999.90;999.90;;;2.10;67.30;;;;;;5062122;28;20460;-69
2023/02/15 04:44:08;;;;;;;1999.90;999.90;;;2.40;81.90;;;;;;5063050;28;20168;-72
2023/02/15 04:46:34;;;;;;;1999.90;999.90;;;2.00;58.50;;;;;;5062816;28;20207;-70
2023/02/15 04:48:59;;;;;;;1999.90;999.90;;;2.00;57.50;;;;;;5062509;28;20172;-70
2023/02/15 04:51:25;;;;;;;1999.90;999.90;;;2.00;60.40;;;;;;5063491;28;20175;-70
2023/02/15 04:53:54;;;;;;;1999.90;999.90;;;1.90;55.10;;;;;;5045752;28;20183;-69
2023/02/15 04:56:20;;;;;;;1999.90;999.90;;;1.90;52.60;;;;;;5064655;28;20275;-72
2023/02/15 04:58:46;;;;;;;1999.90;999.90;;;1.90;59.90;;;;;;5048183;28;20414;-72
2023/02/15 05:01:11;;;;;;;1999.90;999.90;;;1.90;60.10;;;;;;5065881;28;20524;-72
2023/02/15 05:03:37;;;;;;;1999.90;999.90;;;1.80;55.60;;;;;;5064897;28;20398;-71
2023/02/15 05:06:03;;;;;;;1999.90;999.90;;;1.70;63.70;;;;;;5066534;28;20207;-72
2023/02/15 05:08:28;;;;;;;1999.90;999.90;;;2.80;68.10;;;;;;5067119;28;20175;-72
2023/02/15 05:10:54;;;;;;;1999.90;999.90;;;1.70;69.40;;;;;;5065681;28;20186;-72
2023/02/15 05:13:20;;;;;;;1999.90;999.90;;;1.60;73.10;;;;;;5065181;28;20176;-72
2023/02/15 05:15:49;;;;;;;1999.90;999.90;;;1.70;91.70;;;;;;5065648;28;20219;-71
2023/02/15 05:18:17;;;;;;;1999.90;999.90;;;1.60;92.10;;;;;;5064489;28;20168;-72
2023/02/15 05:20:42;;;;;;;1999.90;999.90;;;1.60;95.70;;;;;;5064962;28;20176;-72
2023/02/15 05:23:08;;;;;;;1999.90;999.90;;;1.60;99.00;;;;;;5064520;28;20230;-71
2023/02/15 05:28:21;;;;;;;1999.90;999.90;;;1.60;99.90;;;;;;5065451;28;20174;-72
2023/02/15 05:30:58;;;;;;;1999.90;999.90;;;1.50;99.90;;;;;;5064562;28;20538;-72
2023/02/15 05:33:24;;;;;;;1999.90;999.90;;;1.50;99.90;;;;;;5064294;28;20223;-71
2023/02/15 05:35:50;;;;;;;1999.90;999.90;;;1.40;99.90;;;;;;5045547;28;20649;-70
2023/02/15 05:38:17;;;;;;;1999.90;999.90;;;1.50;99.90;;;;;;5065569;28;20226;-72
2023/02/15 05:40:43;;;;;;;1999.90;999.90;;;1.50;99.90;;;;;;5065436;28;20168;-71
2023/02/15 05:43:09;;;;;;;1999.90;999.90;;;1.50;99.90;;;;;;5065863;28;20226;-69
2023/02/15 05:45:34;;;;;;;1999.90;999.90;;;1.50;99.90;;;;;;5063711;28;20195;-71
2023/02/15 05:48:00;;;;;;;1999.90;999.90;;;1.50;99.90;;;;;;5046171;28;20187;-71
2023/02/15 05:50:26;;;;;;;1999.90;999.90;;;1.50;99.90;;;;;;5063623;28;20600;-71
2023/02/15 05:52:52;;;;;;;1999.90;999.90;;;1.50;99.90;;;;;;5062925;28;20229;-71
2023/02/15 05:55:18;;;;;;;1999.90;999.90;;;1.50;99.90;;;;;;5063468;28;20430;-71
2023/02/15 05:57:43;;;;;;;1999.90;999.90;;;1.50;99.90;;;;;;5062832;28;20410;-71
2023/02/15 06:00:09;;;;;;;1999.90;999.90;;;1.50;99.90;;;;;;5063556;28;20410;-69
2023/02/15 06:02:36;;;;;;;1999.90;999.90;;;1.50;99.90;;;;;;5063654;28;20197;-71
2023/02/15 06:05:03;;;;;;;1999.90;999.90;;;1.40;99.90;;;;;;5064094;28;20219;-71
2023/02/15 06:07:29;;;;;;;1999.90;999.90;;;1.40;99.90;;;;;;5046469;28;20172;-70
2023/02/15 06:09:54;;;;;;;1999.90;999.90;;;1.40;99.90;;;;;;5063630;28;20171;-70
2023/02/15 06:12:20;;;;;;;1999.90;999.90;;;1.40;99.90;;;;;;5063596;28;20175;-71
2023/02/15 06:14:45;;;;;;;1999.90;999.90;;;1.40;99.90;;;;;;5058075;28;20556;-70
2023/02/15 06:17:11;;;;;;;1999.90;999.90;;;1.40;99.90;;;;;;5052598;28;20305;-70
2023/02/15 06:19:36;;;;;;;1999.90;999.90;;;1.50;99.90;;;;;;5052679;28;20179;-71
2023/02/15 06:22:02;;;;;;;1999.90;999.90;;;1.50;99.90;;;;;;5052398;28;20683;-71
2023/02/15 06:24:28;;;;;;;1999.90;999.90;;;1.50;99.90;;;;;;5052436;28;20192;-71
2023/02/15 06:26:53;;;;;;;1999.90;999.90;;;1.50;99.90;;;;;;5045875;28;20251;-70
2023/02/15 06:29:19;;;;;;;1999.90;999.90;;;1.40;99.90;;;;;;5032584;28;20176;-70
2023/02/15 06:31:44;;;;;;;1999.90;999.90;;;1.40;99.90;;;;;;5032444;28;20183;-71
2023/02/15 06:34:10;;;;;;;1999.90;999.90;;;1.40;99.90;;;;;;5032333;28;20175;-70
2023/02/15 06:36:36;;;;;;;1999.90;999.90;;;1.40;99.90;;;;;;5040173;28;20707;-71
2023/02/15 06:39:03;;;;;;;1999.90;999.90;;;1.30;99.90;;;;;;5044526;28;20164;-71
2023/02/15 06:41:28;;;;;;;1999.90;999.90;;;1.40;99.90;;;;;;5043253;28;20176;-71
2023/02/15 06:43:54;;;;;;;1999.90;999.90;;;1.40;99.90;;;;;;5043203;28;20575;-70
2023/02/15 06:46:19;;;;;;;1999.90;999.90;;;1.40;99.90;;;;;;5042524;28;20677;-70
2023/02/15 06:48:45;;;;;;;1999.90;999.90;;;1.30;99.90;;;;;;5043022;28;20186;-71
2023/02/15 06:51:11;;;;;;;1999.90;999.90;;;1.40;99.90;;;;;;5025017;28;20388;-71
2023/02/15 06:53:36;;;;;;;1999.90;999.90;;;1.30;99.90;;;;;;5042973;28;20180;-71
2023/02/15 06:56:06;;;;;;;1999.90;999.90;;;1.40;99.90;;;;;;5042091;28;20188;-71
2023/02/15 06:58:32;;;;;;;1999.90;999.90;;;1.30;99.90;;;;;;5041505;28;20187;-70
2023/02/15 07:00:58;;;;;;;1999.90;999.90;;;1.40;99.90;;;;;;5040594;28;20210;-71
2023/02/15 07:03:24;;;;;;;1999.90;999.90;;;1.40;99.90;;;;;;5041140;28;20663;-71
2023/02/15 07:05:57;;;;;;;1999.90;999.90;;;1.40;99.90;;;;;;5023381;28;20470;-71
2023/02/15 07:08:23;;;;;;;1999.90;999.90;;;1.40;99.90;;;;;;5039701;28;20260;-71
2023/02/15 07:10:54;;;;;;;1999.90;999.90;;;2.70;99.90;;;;;;5039876;28;20172;-71
2023/02/15 07:13:20;;;;;;;1999.90;999.90;;;1.50;99.90;;;;;;5039602;28;20637;-71
2023/02/15 07:15:48;;;;;;;1999.90;999.90;;;1.50;99.90;;;;;;5039696;28;20754;-71
2023/02/15 07:18:14;;;;;;;1999.90;999.90;;;1.60;99.90;;;;;;5039205;28;20230;-71
2023/02/15 07:20:41;;;;;;;1999.90;999.90;;;1.60;99.90;;;;;;5039878;28;20207;-71
2023/02/15 07:23:09;;;;;;;1999.90;999.90;;;1.60;99.90;;;;;;5040028;28;20463;-71
2023/02/15 07:25:34;;;;;;;1999.90;999.90;;;1.70;99.90;;;;;;5040776;28;20246;-70
2023/02/15 07:28:02;;;;;;;1999.90;999.90;;;1.70;99.90;;;;;;5042589;28;20172;-71
2023/02/15 07:30:29;;;;;;;1999.90;999.90;;;1.90;99.90;;;;;;5044762;28;20176;-71
2023/02/15 07:35:52;;;;;;;1999.90;999.90;;;1.80;99.90;;;;;;5045389;28;20214;-70
2023/02/15 07:38:18;;;;;;;1999.90;999.90;;;1.90;99.90;;;;;;5045177;28;20168;-72
2023/02/15 07:40:44;;;;;;;1999.90;999.90;;;4.00;99.90;;;;;;5044886;28;20513;-71
2023/02/15 07:43:10;;;;;;;1999.90;999.90;;;2.00;99.90;;;;;;5046486;28;20224;-71
2023/02/15 07:45:36;;;;;;;1999.90;999.90;;;2.10;99.90;;;;;;5059248;28;20621;-71
2023/02/15 07:48:02;;;;;;;1999.90;999.90;;;2.10;99.90;;;;;;5066009;28;20195;-71
2023/02/15 07:50:28;;;;;;;1999.90;999.90;;;2.20;99.90;;;;;;5066144;28;20168;-71
2023/02/15 07:52:54;;;;;;;1999.90;999.90;;;2.10;99.90;;;;;;5065502;28;20172;-71
2023/02/15 07:55:19;;;;;;;1999.90;999.90;;;2.10;99.90;;;;;;5029771;28;20199;-70
2023/02/15 07:57:46;;;;;;;1999.90;999.90;;;2.30;99.90;;;;;;5064619;28;20250;-70
2023/02/15 08:00:14;;;;;;;1999.90;999.90;;;2.40;99.90;;;;;;5064854;28;20696;-71
2023/02/15 08:02:39;;;;;;;1999.90;999.90;;;2.50;99.90;;;;;;5063461;28;20459;-71
2023/02/15 08:05:06;;;;;;;1999.90;999.90;;;2.50;99.90;;;;;;5055250;28;20195;-71
2023/02/15 08:07:31;;;;;;;1999.90;999.90;;;2.60;99.90;;;;;;5055158;28;20182;-71
2023/02/15 08:09:59;;;;;;;1999.90;999.90;;;2.70;99.90;;;;;;5055095;28;20830;-71
2023/02/15 08:12:26;;;;;;;1999.90;999.90;;;2.80;99.90;;;;;;5054945;28;20164;-72
2023/02/15 08:14:51;;;;;;;1999.90;999.90;;;2.90;99.90;;;;;;5055195;28;20448;-70
2023/02/15 08:17:17;;;;;;;1999.90;999.90;;;3.00;99.90;;;;;;5054959;28;20775;-72
2023/02/15 08:19:43;;;;;;;1999.90;999.90;;;3.00;99.90;;;;;;5055044;28;20709;-72
2023/02/15 08:22:13;;;;;;;1999.90;999.90;;;3.10;99.90;;;;;;5054743;28;20544;-71
2023/02/15 08:24:39;;;;;;;1999.90;999.90;;;3.10;99.90;;;;;;5054809;28;20668;-71
2023/02/15 08:27:06;;;;;;;1999.90;999.90;;;3.20;99.90;;;;;;5055023;28;20406;-72
2023/02/15 08:29:33;;;;;;;1999.90;999.90;;;3.20;99.90;;;;;;5055136;28;20782;-71
2023/02/15 08:32:06;;;;;;;1999.90;999.90;;;3.30;99.90;;;;;;5054546;28;20395;-72
2023/02/15 08:34:34;;;;;;;1999.90;999.90;;;3.40;99.90;;;;;;5054576;28;20438;-71
2023/02/15 08:37:00;;;;;;;1999.90;999.90;;;3.50;99.90;;;;;;5054555;28;20417;-71
2023/02/15 08:39:26;;;;;;;1999.90;999.90;;;3.60;97.10;;;;;;5054430;28;20414;-70
2023/02/15 08:41:52;;;;;;;1999.90;999.90;;;3.70;90.50;;;;;;5054447;28;20462;-71
2023/02/15 08:44:19;;;;;;;1999.90;999.90;;;4.00;97.70;;;;;;5054482;28;20168;-71
2023/02/15 08:46:46;;;;;;;1999.90;999.90;;;3.90;82.00;;;;;;5054408;28;20402;-71
2023/02/15 08:49:17;;;;;;;1999.90;999.90;;;4.00;76.70;;;;;;5054379;28;20433;-72
2023/02/15 08:51:43;;;;;;;1999.90;999.90;;;4.20;70.00;;;;;;5054477;28;20398;-71
2023/02/15 08:54:13;;;;;;;1999.90;999.90;;;4.50;21.30;;;;;;5054183;28;20402;-72
2023/02/15 08:56:41;;;;;;;1999.90;999.90;;;4.50;7.60;;;;;;5054310;28;20417;-71
2023/02/15 08:59:12;;;;;;;1999.90;999.90;;;4.50;1.00;;;;;;5054263;28;20464;-71
2023/02/15 09:01:37;;;;;;;1999.90;999.90;;;4.70;1.00;;;;;;5054228;28;20541;-72
2023/02/15 09:04:08;;;;;;;1999.90;999.90;;;4.70;1.00;;;;;;5054079;28;20461;-71
2023/02/15 09:06:34;;;;;;;1999.90;999.90;;;4.80;1.00;;;;;;5054029;28;20166;-71
2023/02/15 09:09:00;;;;;;;1999.90;999.90;;;4.90;1.00;;;;;;5054286;28;20386;-72
2023/02/15 09:11:28;;;;;;;1999.90;999.90;;;5.00;1.00;;;;;;5053946;28;20810;-71
2023/02/15 09:14:05;;;;;;;1999.90;999.90;;;5.00;1.00;;;;;;5054020;28;20536;-72
2023/02/15 09:16:33;;;;;;;1999.90;999.90;;;5.10;1.00;;;;;;5053793;28;20425;-71
2023/02/15 09:19:04;;;;;;;1999.90;999.90;;;5.10;1.00;;;;;;5053879;28;20438;-70
2023/02/15 09:21:30;;;;;;;1999.90;999.90;;;5.20;1.00;;;;;;5053651;28;20917;-72
2023/02/15 09:23:59;;;;;;;1999.90;999.90;;;5.40;1.00;;;;;;5053793;28;20399;-72
2023/02/15 09:26:28;;;;;;;1999.90;999.90;;;5.50;99.90;;;;;;5053588;28;20422;-72
2023/02/15 09:28:55;;;;;;;1999.90;999.90;;;5.60;99.90;;;;;;5053653;28;20428;-70
2023/02/15 09:31:24;;;;;;;1999.90;999.90;;;5.80;99.90;;;;;;5053672;28;21010;-74
2023/02/15 09:33:50;;;;;;;1999.90;999.90;;;5.90;99.90;;;;;;5048891;28;20475;-69
2023/02/15 09:36:23;;;;;;;1999.90;999.90;;;6.00;99.90;;;;;;5054877;28;20837;-69
2023/02/15 09:39:09;;;;;;;1999.90;999.90;;;6.10;99.90;;;;;;5053397;28;20164;-69
2023/02/15 09:41:47;;;;;;;1999.90;999.90;;;6.60;99.90;;;;;;5054082;28;20415;-69
2023/02/15 09:44:35;;;;;;;1999.90;999.90;;;6.20;99.90;;;;;;5054027;28;20405;-69
2023/02/15 09:47:22;;;;;;;1999.90;999.90;;;6.40;99.90;;;;;;5055087;28;20485;-69
2023/02/15 09:49:57;;;;;;;1999.90;999.90;;;6.50;99.90;;;;;;5052504;28;20490;-69
2023/02/15 09:52:25;;;;;;;1999.90;999.90;;;6.70;1.00;;;;;;5053102;28;20454;-69
2023/02/15 09:55:15;;;;;;;1999.90;999.90;;;6.80;99.90;;;;;;5052918;28;21232;-69
2023/02/15 09:57:53;;;;;;;1999.90;999.90;;;6.90;99.90;;;;;;5053350;28;20486;-69
2023/02/15 10:00:57;;;;;;;1999.90;999.90;;;7.00;99.90;;;;;;5053182;28;20417;-70
2023/02/15 10:03:24;;;;;;;1999.90;999.90;;;7.10;99.90;;;;;;5017414;28;20457;-70
2023/02/15 10:05:56;;;;;;;1999.90;999.90;;;7.20;99.90;;;;;;5053256;28;20963;-70
2023/02/15 10:08:37;;;;;;;1999.90;999.90;;;7.30;99.90;;;;;;5053430;28;20723;-69
2023/02/15 10:14:18;;;;;;;1999.90;999.90;;;7.70;99.90;;;;;;5052769;28;20818;-68
2023/02/15 10:17:12;;;;;;;1999.90;999.90;;;8.10;99.90;;;;;;5052750;28;20491;-69
2023/02/15 10:19:58;;;;;;;1999.90;999.90;;;8.00;99.90;;;;;;5052601;28;20412;-68
2023/02/15 10:22:24;;;;;;;1999.90;999.90;;;8.20;99.90;;;;;;5052628;28;20555;-69
2023/02/15 10:25:15;;;;;;;1999.90;999.90;;;8.40;99.90;;;;;;5053216;28;20524;-66
2023/02/15 10:27:48;;;;;;;1999.90;999.90;;;8.50;99.90;;;;;;5054322;28;20153;-69
2023/02/15 10:30:35;;;;;;;1999.90;999.90;;;8.60;99.90;;;;;;5052589;28;20416;-66
2023/02/15 10:33:16;;;;;;;1999.90;999.90;;;8.80;99.90;;;;;;5052740;28;21092;-66
2023/02/15 10:35:54;;;;;;;1999.90;999.90;;;8.90;99.90;;;;;;5054140;28;20539;-67
2023/02/15 10:38:28;;;;;;;1999.90;999.90;;;9.10;99.90;;;;;;5054201;28;20420;-67
2023/02/15 10:41:02;;;;;;;1999.90;999.90;;;9.20;99.90;;;;;;5052996;28;20408;-67
2023/02/15 10:43:30;;;;;;;1999.90;999.90;;;9.20;99.90;;;;;;5054501;28;20461;-71
2023/02/15 10:46:29;;;;;;;1999.90;999.90;;;9.30;99.90;;;;;;5052254;28;20792;-69
2023/02/15 10:48:55;;;;;;;1999.90;999.90;;;9.30;99.90;;;;;;5015109;28;20812;-69
2023/02/15 10:51:57;;;;;;;1999.90;999.90;;;9.40;99.90;;;;;;5053314;28;20405;-69
2023/02/15 10:54:49;;;;;;;1999.90;999.90;;;9.60;99.90;;;;;;5052691;28;20507;-70
2023/02/15 10:57:36;;;;;;;1999.90;999.90;;;9.80;99.90;;;;;;5055993;28;20496;-71
2023/02/15 11:00:18;;;;;;;1999.90;999.90;;;9.90;99.90;;;;;;5056322;28;20398;-69
2023/02/15 11:03:34;;;;;;;1999.90;999.90;;;10.10;99.90;;;;;;5050630;28;20460;-68
2023/02/15 11:06:10;;;;;;;1999.90;999.90;;;10.20;99.90;;;;;;5051697;28;20422;-69
2023/02/15 11:08:42;;;;;;;1999.90;999.90;;;10.30;99.90;;;;;;5052163;28;20497;-72
2023/02/15 11:11:13;;;;;;;1999.90;999.90;;;10.60;99.90;;;;;;5050973;28;20775;-68
2023/02/15 11:13:47;;;;;;;1999.90;999.90;;;10.60;99.90;;;;;;5051753;28;20402;-69
2023/02/15 11:16:26;;;;;;;1999.90;999.90;;;10.80;99.90;;;;;;5051581;28;20437;-68
2023/02/15 11:18:59;;;;;;;1999.90;999.90;;;10.90;99.90;;;;;;5053140;28;20406;-66
2023/02/15 11:21:32;;;;;;;1999.90;999.90;;;11.00;99.90;;;;;;5052057;28;20410;-66
2023/02/15 11:23:59;;;;;;;1999.90;999.90;;;11.20;99.90;;;;;;5052132;28;20398;-67
2023/02/15 11:26:38;;;;;;;1999.90;999.90;;;11.30;99.90;;;;;;5053271;28;20431;-67
2023/02/15 11:29:13;;;;;;;1999.90;999.90;;;11.50;99.90;;;;;;5052350;28;20772;-67
2023/02/15 11:31:57;;;;;;;1999.90;999.90;;;11.60;99.90;;;;;;5051844;28;20440;-66
2023/02/15 11:34:36;;;;;;;1999.90;999.90;;;11.70;99.90;;;;;;5056344;28;20405;-71
2023/02/15 11:37:16;;;;;;;1999.90;999.90;;;11.80;99.90;;;;;;5052033;28;20393;-67
2023/02/15 11:39:43;;;;;;;1999.90;999.90;;;12.00;99.90;;;;;;5055337;28;20423;-67
2023/02/15 11:42:16;;;;;;;1999.90;999.90;;;12.30;99.90;;;;;;5052963;28;20491;-67
2023/02/15 11:44:58;;;;;;;1999.90;999.90;;;12.70;99.90;;;;;;5053909;28;20514;-67
2023/02/15 11:47:23;;;;;;;1999.90;999.90;;;13.20;99.90;;;;;;5050834;28;20500;-67
2023/02/15 11:49:49;;;;;;;1999.90;999.90;;;14.10;99.90;;;;;;5051870;28;20495;-68
2023/02/15 11:52:17;;;;;;;1999.90;999.90;;;14.80;99.90;;;;;;5051124;28;20181;-68
2023/02/15 11:54:46;;;;;;;1999.90;999.90;;;15.50;99.90;;;;;;5050538;28;20191;-68
2023/02/15 11:57:19;;;;;;;1999.90;999.90;;;16.20;99.90;;;;;;5051913;28;20414;-68
2023/02/15 12:00:07;;;;;;;1999.90;999.90;;;16.80;99.90;;;;;;5052562;28;20407;-67
2023/02/15 12:02:35;;;;;;;1999.90;999.90;;;17.40;98.20;;;;;;5050621;28;21149;-67
2023/02/15 12:05:06;;;;;;;1999.90;999.90;;;17.80;94.00;;;;;;5051627;28;20492;-68
2023/02/15 12:07:37;;;;;;;1999.90;999.90;;;18.00;91.10;;;;;;5050830;28;20449;-68
2023/02/15 12:10:22;;;;;;;1999.90;999.90;;;18.30;83.40;;;;;;5050514;28;20404;-68
2023/02/15 12:12:47;;;;;;;1999.90;999.90;;;18.60;79.70;;;;;;5051858;28;20408;-68
2023/02/15 12:15:13;;;;;;;1999.90;999.90;;;18.80;74.60;;;;;;5054982;28;20520;-68
2023/02/15 12:17:48;;;;;;;1999.90;999.90;;;19.10;69.90;;;;;;5054813;28;20272;-68
2023/02/15 12:20:14;;;;;;;1999.90;999.90;;;19.40;61.30;;;;;;5054956;28;20495;-68
2023/02/15 12:22:46;;;;;;;1999.90;999.90;;;19.50;55.00;;;;;;5054815;28;20489;-68
2023/02/15 12:25:40;;;;;;;1999.90;999.90;;;19.80;53.30;;;;;;5054472;28;20188;-68
2023/02/15 12:28:26;;;;;;;1999.90;999.90;;;20.30;48.10;;;;;;5054894;28;20412;-68
2023/02/15 12:30:54;;;;;;;1999.90;999.90;;;20.60;41.40;;;;;;5054046;28;20404;-68
2023/02/15 12:33:29;;;;;;;1999.90;999.90;;;20.70;38.10;;;;;;5056469;28;20976;-69
2023/02/15 12:36:09;;;;;;;1999.90;999.90;;;20.80;38.70;;;;;;5055798;28;20483;-69
2023/02/15 12:38:35;;;;;;;1999.90;999.90;;;20.60;36.50;;;;;;5056338;28;20407;-69
2023/02/15 12:41:21;;;;;;;1999.90;999.90;;;20.40;35.30;;;;;;5056823;28;20402;-69
2023/02/15 12:44:02;;;;;;;1999.90;999.90;;;20.30;33.70;;;;;;5057263;28;20508;-68
2023/02/15 12:46:27;;;;;;;1999.90;999.90;;;20.40;34.50;;;;;;5053470;28;20529;-68
2023/02/15 12:49:09;;;;;;;1999.90;999.90;;;20.60;32.50;;;;;;5053956;28;20500;-68
2023/02/15 12:51:50;;;;;;;1999.90;999.90;;;20.70;33.10;;;;;;5053743;28;20179;-69
2023/02/15 12:54:22;;;;;;;1999.90;999.90;;;21.00;31.30;;;;;;5053400;28;20465;-69
2023/02/15 12:56:48;;;;;;;1999.90;999.90;;;21.40;27.90;;;;;;5053788;28;20404;-68